Time;durP1;ratioP1;P1;durP2;ratioP2;P2;SDS_P1;SDS_P2;PMS_P1;PMS_P2;Temp;Humidity;BMP_temperature;BMP_pressure;BME280_temperature;BME280_humidity;BME280_pressure;Samples;Min_cycle;Max_cycle;Signal;HPM_P1;HPM_P2
2022/09/22 00:01:39;;;;;;;7.83;2.70;;;-20.90;99.90;;;;;;5080593;28;20264;-75
2022/09/22 00:04:07;;;;;;;2.77;2.17;;;-19.90;99.90;;;;;;5080522;28;20506;-78
2022/09/22 00:06:42;;;;;;;3.97;2.50;;;-22.10;99.90;;;;;;5078444;28;20212;-78
2022/09/22 00:09:11;;;;;;;3.50;2.53;;;-23.50;99.90;;;;;;5083341;28;20191;-76
2022/09/22 00:11:41;;;;;;;3.80;2.23;;;-22.50;99.90;;;;;;5090211;28;20577;-70
2022/09/22 00:14:16;;;;;;;2.07;1.93;;;-23.20;99.90;;;;;;5077941;28;20235;-72
2022/09/22 00:16:48;;;;;;;3.33;2.80;;;-22.50;99.90;;;;;;5078094;28;20217;-78
2022/09/22 00:19:19;;;;;;;2.63;2.00;;;-23.20;99.90;;;;;;5077813;28;20204;-69
2022/09/22 00:21:45;;;;;;;5.47;2.10;;;-23.40;99.90;;;;;;5077958;28;20215;-73
2022/09/22 00:24:11;;;;;;;2.50;2.10;;;-26.50;99.90;;;;;;5079094;28;20524;-72
2022/09/22 00:26:38;;;;;;;4.33;2.57;;;-26.90;99.90;;;;;;5081407;28;20184;-79
2022/09/22 00:29:08;;;;;;;2.90;2.50;;;-20.20;99.90;;;;;;5076137;28;20577;-70
2022/09/22 00:31:36;;;;;;;3.10;2.13;;;-23.20;99.90;;;;;;5081722;28;20647;-68
2022/09/22 00:34:02;;;;;;;2.57;2.37;;;-23.50;99.90;;;;;;5077739;28;20187;-70
2022/09/22 00:36:27;;;;;;;4.23;2.37;;;-27.20;99.90;;;;;;5077592;28;20212;-71
2022/09/22 00:38:55;;;;;;;3.60;2.27;;;-22.90;99.90;;;;;;5088285;28;20633;-70
2022/09/22 00:41:28;;;;;;;3.67;2.07;;;-24.10;99.90;;;;;;5082039;28;20186;-77
2022/09/22 00:44:15;;;;;;;6.13;3.17;;;-26.80;99.90;;;;;;5081957;28;20190;-80
2022/09/22 00:46:44;;;;;;;4.03;2.57;;;-26.40;99.90;;;;;;5083374;28;20192;-71
2022/09/22 00:49:13;;;;;;;4.00;2.07;;;-25.80;99.90;;;;;;5081179;28;20181;-73
2022/09/22 00:51:42;;;;;;;8.73;2.40;;;-25.90;99.90;;;;;;5077100;28;20606;-71
2022/09/22 00:54:12;;;;;;;5.27;2.30;;;-25.70;99.90;;;;;;5083694;28;20585;-79
2022/09/22 00:56:52;;;;;;;5.10;3.20;;;-26.70;99.90;;;;;;5077454;28;20193;-77
2022/09/22 00:59:20;;;;;;;1.87;1.77;;;-26.40;99.90;;;;;;5085691;28;20273;-76
2022/09/22 01:01:47;;;;;;;2.87;2.67;;;-23.20;99.90;;;;;;5086491;28;20188;-71
2022/09/22 01:04:14;;;;;;;3.73;2.37;;;-26.10;99.90;;;;;;5075952;28;20593;-71
2022/09/22 01:06:40;;;;;;;2.67;1.73;;;-29.30;99.90;;;;;;5077302;28;20615;-72
2022/09/22 01:09:07;;;;;;;9.63;3.43;;;-28.00;99.90;;;;;;5079777;28;20176;-70
2022/09/22 01:11:33;;;;;;;3.27;1.83;;;-27.70;99.90;;;;;;5076986;28;20201;-70
2022/09/22 01:14:04;;;;;;;8.80;2.70;;;-28.50;99.90;;;;;;5080455;28;20571;-79
2022/09/22 01:16:53;;;;;;;7.63;2.80;;;-30.80;99.90;;;;;;5083251;28;20543;-78
2022/09/22 01:19:38;;;;;;;3.17;2.27;;;-32.80;99.90;;;;;;5076856;28;20181;-70
2022/09/22 01:22:07;;;;;;;7.20;2.37;;;-33.00;99.90;;;;;;5081698;28;20316;-71
2022/09/22 01:25:03;;;;;;;2.77;2.10;;;-32.30;99.90;;;;;;5080787;28;20178;-73
2022/09/22 01:27:53;;;;;;;4.37;1.87;;;-30.70;99.90;;;;;;5083804;28;20187;-69
2022/09/22 01:30:53;;;;;;;3.20;1.93;;;-29.00;99.90;;;;;;5084663;28;20301;-72
2022/09/22 01:33:26;;;;;;;12.77;3.70;;;-28.00;99.90;;;;;;5076434;28;20196;-77
2022/09/22 01:35:52;;;;;;;4.10;2.93;;;-28.40;99.90;;;;;;5076642;28;20252;-70
2022/09/22 01:38:36;;;;;;;5.70;2.60;;;-29.70;99.90;;;;;;5080203;28;20268;-70
2022/09/22 01:41:34;;;;;;;2.70;2.50;;;-26.90;99.90;;;;;;5077417;28;20187;-75
2022/09/22 01:44:06;;;;;;;2.33;2.23;;;-34.30;99.90;;;;;;5076569;28;20187;-71
2022/09/22 01:46:40;;;;;;;7.47;2.40;;;-31.90;99.90;;;;;;5083387;28;20229;-75
2022/09/22 01:49:09;;;;;;;4.60;2.57;;;-31.50;99.90;;;;;;5080604;28;20183;-70
2022/09/22 01:51:58;;;;;;;4.50;2.93;;;-32.80;99.90;;;;;;5080649;28;20719;-72
2022/09/22 01:54:32;;;;;;;3.17;2.53;;;-32.30;99.90;;;;;;5080989;28;20180;-73
2022/09/22 01:57:23;;;;;;;3.40;2.53;;;-28.50;99.90;;;;;;5075687;28;20211;-71
2022/09/22 01:59:57;;;;;;;8.33;3.20;;;-27.40;99.90;;;;;;5074525;28;20206;-72
2022/09/22 02:02:30;;;;;;;4.60;3.30;;;-33.30;99.90;;;;;;5076295;28;20183;-71
2022/09/22 02:05:01;;;;;;;4.33;2.60;;;-33.90;99.90;;;;;;5075504;28;20191;-73
2022/09/22 02:07:37;;;;;;;3.60;2.77;;;-36.20;99.90;;;;;;5075930;28;20199;-73
2022/09/22 02:10:09;;;;;;;4.07;3.17;;;-32.90;99.90;;;;;;5079057;28;20178;-70
2022/09/22 02:12:36;;;;;;;4.43;3.40;;;-33.30;99.90;;;;;;5083150;28;20176;-70
2022/09/22 02:15:04;;;;;;;8.40;3.50;;;-40.00;99.90;;;;;;5080937;28;20228;-72
2022/09/22 02:17:31;;;;;;;3.27;2.97;;;-35.00;99.90;;;;;;5083017;28;20190;-70
2022/09/22 02:19:57;;;;;;;5.17;2.73;;;-33.50;99.90;;;;;;5082516;28;21666;-71
2022/09/22 02:22:23;;;;;;;6.13;3.73;;;-33.70;99.90;;;;;;5074818;28;20180;-72
2022/09/22 02:24:48;;;;;;;5.87;3.27;;;-37.30;99.90;;;;;;5075163;28;20540;-69
2022/09/22 02:27:34;;;;;;;4.57;3.77;;;-38.10;99.90;;;;;;5081162;28;20183;-74
2022/09/22 02:30:08;;;;;;;3.83;3.37;;;-33.00;99.90;;;;;;5085696;28;20185;-70
2022/09/22 02:32:37;;;;;;;8.00;3.90;;;-32.20;99.90;;;;;;5080948;28;20281;-71
2022/09/22 02:35:04;;;;;;;6.63;3.37;;;-33.60;99.90;;;;;;5082138;28;20266;-69
2022/09/22 02:37:55;;;;;;;4.03;3.40;;;-35.50;99.90;;;;;;5075851;28;20187;-73
2022/09/22 02:40:47;;;;;;;4.03;3.57;;;-37.70;99.90;;;;;;5076843;28;20186;-72
2022/09/22 02:43:16;;;;;;;4.43;4.03;;;-35.80;99.90;;;;;;5074817;28;20187;-70
2022/09/22 02:46:18;;;;;;;4.97;3.40;;;-37.60;99.90;;;;;;5081439;28;20187;-71
2022/09/22 02:49:01;;;;;;;3.43;3.13;;;-38.80;99.90;;;;;;5080732;28;20652;-71
2022/09/22 02:51:28;;;;;;;5.30;3.50;;;-40.00;99.90;;;;;;5074899;28;20258;-72
2022/09/22 02:53:54;;;;;;;3.73;3.33;;;-40.00;99.90;;;;;;5074246;28;20324;-71
2022/09/22 02:56:19;;;;;;;3.63;3.43;;;-40.00;99.90;;;;;;5075106;28;20286;-73
2022/09/22 02:58:45;;;;;;;5.77;4.40;;;-40.00;99.90;;;;;;5080667;28;20274;-69
2022/09/22 03:01:11;;;;;;;5.90;4.13;;;-40.00;99.90;;;;;;5074997;28;20202;-69
2022/09/22 03:03:36;;;;;;;8.83;4.13;;;-39.50;99.90;;;;;;5081600;28;20190;-77
2022/09/22 03:06:02;;;;;;;4.93;4.43;;;-40.00;99.90;;;;;;5078917;28;20531;-75
2022/09/22 03:08:28;;;;;;;8.77;5.07;;;-40.00;99.90;;;;;;5074671;28;20259;-70
2022/09/22 03:10:54;;;;;;;7.33;4.87;;;-40.00;99.90;;;;;;5083043;28;20237;-72
2022/09/22 03:13:19;;;;;;;4.50;4.20;;;-40.00;99.90;;;;;;5086218;28;20191;-71
2022/09/22 03:15:45;;;;;;;4.57;4.17;;;-36.90;99.90;;;;;;5080591;28;20209;-70
2022/09/22 03:18:12;;;;;;;9.60;4.57;;;-40.00;99.90;;;;;;5085016;28;20183;-72
2022/09/22 03:20:38;;;;;;;4.03;3.73;;;-40.00;99.90;;;;;;5089545;28;20223;-72
2022/09/22 03:23:04;;;;;;;5.50;4.67;;;-40.00;99.90;;;;;;5083406;28;20183;-69
2022/09/22 03:25:30;;;;;;;6.00;4.77;;;-40.00;99.90;;;;;;5086484;28;20527;-71
2022/09/22 03:27:55;;;;;;;5.27;4.87;;;-40.00;99.90;;;;;;5078916;28;20641;-72
2022/09/22 03:30:21;;;;;;;6.60;4.97;;;-40.00;99.90;;;;;;5078245;28;20183;-74
2022/09/22 03:32:47;;;;;;;7.60;5.53;;;-40.00;99.90;;;;;;5078561;28;20194;-70
2022/09/22 03:35:13;;;;;;;11.57;6.00;;;-40.00;99.90;;;;;;5088582;28;20198;-69
2022/09/22 03:37:38;;;;;;;4.33;4.03;;;-40.00;99.90;;;;;;5077139;28;20227;-76
2022/09/22 03:40:04;;;;;;;7.37;4.37;;;-40.00;99.90;;;;;;5086428;28;20616;-71
2022/09/22 03:42:31;;;;;;;7.47;6.13;;;-40.00;99.90;;;;;;5078945;28;20601;-69
2022/09/22 03:44:57;;;;;;;6.57;5.03;;;-40.00;99.90;;;;;;5076738;28;20183;-69
2022/09/22 03:47:23;;;;;;;4.40;3.97;;;-40.00;99.90;;;;;;5076032;28;20463;-71
2022/09/22 03:49:49;;;;;;;8.70;5.43;;;-40.00;99.90;;;;;;5075782;28;20812;-71
2022/09/22 03:52:15;;;;;;;7.33;5.77;;;-40.00;99.90;;;;;;5076425;28;20305;-69
2022/09/22 03:54:41;;;;;;;6.50;5.23;;;-40.00;99.90;;;;;;5077119;28;20288;-71
2022/09/22 03:57:07;;;;;;;6.07;5.50;;;-39.00;99.90;;;;;;5083005;28;20253;-72
2022/09/22 03:59:32;;;;;;;6.63;4.80;;;-36.90;99.90;;;;;;5082394;28;20591;-72
2022/09/22 04:01:59;;;;;;;6.03;5.07;;;-40.00;99.90;;;;;;5088462;28;20357;-70
2022/09/22 04:04:25;;;;;;;12.17;6.33;;;-40.00;99.90;;;;;;5085049;28;20172;-70
2022/09/22 04:06:51;;;;;;;6.63;6.03;;;-40.00;99.90;;;;;;5082406;28;20214;-70
2022/09/22 04:09:17;;;;;;;9.27;6.23;;;-40.00;99.90;;;;;;5078372;28;20211;-72
2022/09/22 04:11:43;;;;;;;11.63;6.53;;;-40.00;99.90;;;;;;5078271;28;20636;-69
2022/09/22 04:14:09;;;;;;;7.87;6.60;;;-40.00;99.90;;;;;;5084336;28;20183;-70
2022/09/22 04:16:35;;;;;;;9.97;6.87;;;-40.00;99.90;;;;;;5082714;28;20199;-70
2022/09/22 04:19:03;;;;;;;6.60;6.00;;;-40.00;99.90;;;;;;5080867;28;20665;-73
2022/09/22 04:21:30;;;;;;;9.13;6.63;;;-40.00;99.90;;;;;;5089012;28;20574;-70
2022/09/22 04:23:56;;;;;;;7.03;6.43;;;-40.00;99.90;;;;;;5083854;28;20266;-72
2022/09/22 04:26:22;;;;;;;7.00;6.33;;;-40.00;99.90;;;;;;5078717;28;20258;-73
2022/09/22 04:28:48;;;;;;;7.67;5.97;;;-40.00;99.90;;;;;;5079562;28;20206;-72
2022/09/22 04:31:14;;;;;;;6.97;6.37;;;-40.00;99.90;;;;;;5082879;28;20234;-70
2022/09/22 04:33:39;;;;;;;7.00;6.33;;;-36.10;99.90;;;;;;5082089;28;20169;-71
2022/09/22 04:36:05;;;;;;;7.57;6.87;;;-40.00;99.90;;;;;;5085185;28;20203;-70
2022/09/22 04:38:31;;;;;;;10.43;7.57;;;-40.00;99.90;;;;;;5083589;28;20210;-70
2022/09/22 04:40:57;;;;;;;10.47;6.67;;;-40.00;99.90;;;;;;5078626;28;20175;-77
2022/09/22 04:43:23;;;;;;;7.17;6.53;;;-37.50;99.90;;;;;;5079259;28;20262;-71
2022/09/22 04:45:48;;;;;;;8.50;7.10;;;-40.00;99.90;;;;;;5079090;28;20171;-71
2022/09/22 04:48:15;;;;;;;8.43;7.43;;;-40.00;99.90;;;;;;5082412;28;20190;-69
2022/09/22 04:50:41;;;;;;;9.27;6.73;;;-40.00;99.90;;;;;;5078529;28;20183;-72
2022/09/22 04:53:07;;;;;;;9.10;7.43;;;-40.00;99.90;;;;;;5083423;28;20508;-76
2022/09/22 04:55:33;;;;;;;11.10;8.63;;;-40.00;99.90;;;;;;5079988;28;20633;-73
2022/09/22 04:57:59;;;;;;;8.03;7.33;;;-40.00;99.90;;;;;;5077564;28;20225;-73
2022/09/22 05:00:27;;;;;;;9.03;8.00;;;-40.00;99.90;;;;;;5082911;28;20195;-73
2022/09/22 05:02:53;;;;;;;8.57;7.67;;;-40.00;99.90;;;;;;5077602;28;20210;-77
2022/09/22 05:05:19;;;;;;;10.30;8.00;;;-40.00;99.90;;;;;;5076995;28;20182;-70
2022/09/22 05:07:47;;;;;;;8.40;6.70;;;-40.00;99.90;;;;;;5083623;28;20207;-68
2022/09/22 05:10:16;;;;;;;8.23;7.47;;;-40.00;99.90;;;;;;5084104;28;20183;-70
2022/09/22 05:12:43;;;;;;;8.50;7.77;;;-40.00;99.90;;;;;;5082575;28;20214;-70
2022/09/22 05:15:11;;;;;;;9.90;8.87;;;-40.00;99.90;;;;;;5076956;28;20178;-69
2022/09/22 05:17:43;;;;;;;11.33;7.03;;;-40.00;99.90;;;;;;5080891;28;20172;-69
2022/09/22 05:20:10;;;;;;;9.33;8.43;;;-40.00;99.90;;;;;;5076494;28;20210;-71
2022/09/22 05:22:38;;;;;;;10.73;7.97;;;-40.00;99.90;;;;;;5075785;28;20271;-70
2022/09/22 05:25:12;;;;;;;8.63;7.77;;;-40.00;99.90;;;;;;5080140;28;20459;-70
2022/09/22 05:27:45;;;;;;;12.47;8.43;;;-40.00;99.90;;;;;;5078096;28;20716;-71
2022/09/22 05:30:11;;;;;;;14.70;8.30;;;-40.00;99.90;;;;;;5082506;28;20182;-75
2022/09/22 05:32:37;;;;;;;9.10;8.17;;;-40.00;99.90;;;;;;5083475;28;20191;-73
2022/09/22 05:35:03;;;;;;;11.90;7.87;;;-40.00;99.90;;;;;;5075091;28;20175;-70
2022/09/22 05:37:29;;;;;;;17.83;9.43;;;-40.00;99.90;;;;;;5075401;28;20187;-74
2022/09/22 05:39:55;;;;;;;13.30;8.07;;;-40.00;99.90;;;;;;5080074;28;20244;-72
2022/09/22 05:42:22;;;;;;;17.40;9.43;;;-40.00;99.90;;;;;;5076549;28;20163;-71
2022/09/22 05:44:48;;;;;;;9.77;8.80;;;-40.00;99.90;;;;;;5081271;28;20266;-70
2022/09/22 05:47:14;;;;;;;11.57;8.27;;;-40.00;99.90;;;;;;5089182;28;20682;-71
2022/09/22 05:49:39;;;;;;;10.00;8.73;;;-40.00;99.90;;;;;;5090520;28;20181;-70
2022/09/22 05:52:05;;;;;;;9.20;8.17;;;-40.00;99.90;;;;;;5088254;28;20327;-69
2022/09/22 05:54:31;;;;;;;11.97;8.53;;;-40.00;99.90;;;;;;5088511;28;20529;-70
2022/09/22 05:56:56;;;;;;;11.17;9.10;;;-40.00;99.90;;;;;;5083580;28;20190;-70
2022/09/22 05:59:22;;;;;;;11.37;9.10;;;-40.00;99.90;;;;;;5088597;28;20198;-70
2022/09/22 06:01:48;;;;;;;9.60;8.60;;;-40.00;99.90;;;;;;5076702;28;20183;-74
2022/09/22 06:04:13;;;;;;;12.87;7.93;;;-40.00;99.90;;;;;;5074946;28;20621;-70
2022/09/22 06:06:40;;;;;;;14.27;8.90;;;-40.00;99.90;;;;;;5082306;28;20183;-67
2022/09/22 06:09:06;;;;;;;10.47;8.17;;;-40.00;99.90;;;;;;5075287;28;20579;-73
2022/09/22 06:11:32;;;;;;;10.83;9.63;;;-40.00;99.90;;;;;;5085129;28;20170;-70
2022/09/22 06:13:58;;;;;;;11.43;9.30;;;-40.00;99.90;;;;;;5081314;28;20491;-72
2022/09/22 06:16:23;;;;;;;10.07;9.00;;;-40.00;99.90;;;;;;5076432;28;20231;-68
2022/09/22 06:18:49;;;;;;;15.53;9.63;;;-40.00;99.90;;;;;;5075317;28;20184;-71
2022/09/22 06:21:17;;;;;;;15.13;8.47;;;-40.00;99.90;;;;;;5081866;28;20248;-72
2022/09/22 06:23:43;;;;;;;13.70;10.23;;;-40.00;99.90;;;;;;5075686;28;20217;-77
2022/09/22 06:26:09;;;;;;;14.20;9.57;;;-40.00;99.90;;;;;;5080937;28;20179;-69
2022/09/22 06:28:35;;;;;;;12.43;9.07;;;-40.00;99.90;;;;;;5083097;28;20182;-70
2022/09/22 06:31:00;;;;;;;15.77;8.93;;;-40.00;99.90;;;;;;5075249;28;20175;-71
2022/09/22 06:33:27;;;;;;;10.70;9.00;;;-40.00;99.90;;;;;;5075112;28;20180;-68
2022/09/22 06:35:53;;;;;;;11.80;10.17;;;-40.00;99.90;;;;;;5075437;28;20203;-76
2022/09/22 06:38:19;;;;;;;12.67;9.77;;;-40.00;99.90;;;;;;5080480;28;20524;-69
2022/09/22 06:40:45;;;;;;;10.67;9.60;;;-40.00;99.90;;;;;;5075249;28;20202;-69
2022/09/22 06:43:22;;;;;;;13.60;9.03;;;-40.00;99.90;;;;;;5084708;28;20179;-69
2022/09/22 06:45:52;;;;;;;12.33;8.77;;;-40.00;99.90;;;;;;5079919;28;20216;-70
2022/09/22 06:48:22;;;;;;;16.27;10.20;;;-40.00;99.90;;;;;;5082530;28;20183;-71
2022/09/22 06:50:52;;;;;;;14.17;10.60;;;-40.00;99.90;;;;;;5081061;28;20187;-75
2022/09/22 06:53:19;;;;;;;15.20;10.10;;;-40.00;99.90;;;;;;5077530;28;20234;-72
2022/09/22 06:55:45;;;;;;;15.63;11.37;;;-40.00;99.90;;;;;;5075198;28;20670;-77
2022/09/22 06:58:12;;;;;;;11.33;9.40;;;-40.00;99.90;;;;;;5074850;28;20597;-71
2022/09/22 07:00:40;;;;;;;14.03;9.00;;;-40.00;99.90;;;;;;5079947;28;20266;-73
2022/09/22 07:03:12;;;;;;;12.63;10.50;;;-40.00;99.90;;;;;;5074667;28;20224;-70
2022/09/22 07:05:38;;;;;;;21.03;11.67;;;-40.00;99.90;;;;;;5074810;28;20503;-70
2022/09/22 07:08:04;;;;;;;14.47;10.00;;;-40.00;99.90;;;;;;5075350;28;20182;-69
2022/09/22 07:10:31;;;;;;;21.57;10.40;;;-40.00;99.90;;;;;;5077302;28;20181;-70
2022/09/22 07:12:59;;;;;;;13.67;9.23;;;-40.00;99.90;;;;;;5077993;28;20183;-84
2022/09/22 07:15:25;;;;;;;17.37;10.60;;;-40.00;99.90;;;;;;5076622;28;20626;-69
2022/09/22 07:17:52;;;;;;;16.10;8.77;;;-40.00;99.90;;;;;;5079061;28;20182;-71
2022/09/22 07:20:19;;;;;;;12.90;8.70;;;-40.00;99.90;;;;;;5075038;28;20573;-69
2022/09/22 07:22:45;;;;;;;11.90;7.00;;;-40.00;99.90;;;;;;5074871;28;20536;-69
2022/09/22 07:25:12;;;;;;;20.60;8.33;;;-40.00;99.90;;;;;;5080773;28;20601;-73
2022/09/22 07:27:38;;;;;;;11.23;8.13;;;-40.00;99.90;;;;;;5078078;28;20185;-71
2022/09/22 07:30:04;;;;;;;14.67;7.97;;;-40.00;99.90;;;;;;5078119;28;20186;-69
2022/09/22 07:32:33;;;;;;;14.97;8.67;;;-40.00;99.90;;;;;;5084695;28;20182;-69
2022/09/22 07:35:00;;;;;;;23.00;8.73;;;-40.00;99.90;;;;;;5081449;28;20193;-70
2022/09/22 07:37:28;;;;;;;12.80;8.33;;;-40.00;99.90;;;;;;5074031;28;20609;-72
2022/09/22 07:39:55;;;;;;;11.43;7.47;;;-40.00;99.90;;;;;;5081469;28;20182;-71
2022/09/22 07:42:20;;;;;;;12.50;6.87;;;-40.00;99.90;;;;;;5074407;28;20185;-70
2022/09/22 07:50:16;;;;;;;9.40;5.70;;;-40.00;99.90;;;;;;5075231;28;20190;-70
2022/09/22 07:52:42;;;;;;;8.43;3.83;;;-40.00;99.90;;;;;;5074245;28;20679;-68
2022/09/22 07:55:08;;;;;;;5.60;4.03;;;-40.00;99.90;;;;;;5078615;28;20226;-73
2022/09/22 07:57:35;;;;;;;4.93;3.67;;;-40.00;99.90;;;;;;5076189;28;20552;-68
2022/09/22 08:00:01;;;;;;;7.47;3.43;;;-40.00;99.90;;;;;;5083929;28;20191;-68
2022/09/22 08:02:27;;;;;;;3.83;3.50;;;-40.00;99.90;;;;;;5083536;28;20184;-70
2022/09/22 08:05:01;;;;;;;3.50;2.63;;;-40.00;99.90;;;;;;5077214;28;20187;-69
2022/09/22 08:07:30;;;;;;;3.37;2.50;;;-40.00;99.90;;;;;;5077391;28;20181;-69
2022/09/22 08:09:56;;;;;;;3.53;2.33;;;-40.00;99.90;;;;;;5084909;28;20594;-77
2022/09/22 08:12:23;;;;;;;6.97;2.33;;;-40.00;99.90;;;;;;5083735;28;20570;-76
2022/09/22 08:14:52;;;;;;;3.10;2.80;;;-40.00;99.90;;;;;;5087096;28;20194;-80
2022/09/22 08:17:21;;;;;;;6.57;2.77;;;-40.00;99.90;;;;;;5083478;28;20210;-81
2022/09/22 08:19:46;;;;;;;2.40;2.20;;;-40.00;99.90;;;;;;5082064;28;20664;-75
2022/09/22 08:22:12;;;;;;;3.83;1.70;;;-40.00;99.90;;;;;;5077833;28;20199;-80
2022/09/22 08:24:38;;;;;;;3.03;2.57;;;-40.00;99.90;;;;;;5082565;28;20188;-74
2022/09/22 08:27:04;;;;;;;2.43;2.00;;;-40.00;99.90;;;;;;5077711;28;20202;-71
2022/09/22 08:29:30;;;;;;;2.63;2.20;;;-40.00;99.90;;;;;;5082104;28;20262;-75
2022/09/22 08:31:56;;;;;;;6.83;2.13;;;-40.00;99.90;;;;;;5077356;28;20191;-71
2022/09/22 08:34:21;;;;;;;5.77;2.40;;;-40.00;99.90;;;;;;5077500;28;20598;-70
2022/09/22 08:36:47;;;;;;;2.93;1.73;;;-40.00;99.90;;;;;;5083743;28;20553;-68
2022/09/22 08:39:14;;;;;;;4.00;2.57;;;-40.00;99.90;;;;;;5083973;28;20179;-69
2022/09/22 08:42:19;;;;;;;2.57;2.37;;;-40.00;99.90;;;;;;5081938;28;20201;-71
2022/09/22 08:44:59;;;;;;;2.33;1.77;;;-40.00;99.90;;;;;;5069571;28;20195;-76
2022/09/22 08:53:22;;;;;;;3.00;1.77;;;-40.00;99.90;;;;;;5077913;28;20214;-70
2022/09/22 08:55:59;;;;;;;2.30;2.10;;;-40.00;99.90;;;;;;5077350;28;20217;-72
2022/09/22 08:58:36;;;;;;;2.40;2.20;;;-40.00;99.90;;;;;;5080020;28;20179;-74
2022/09/22 09:01:16;;;;;;;4.33;1.90;;;-40.00;99.90;;;;;;5081393;28;20198;-70
2022/09/22 09:03:53;;;;;;;3.77;1.70;;;-40.00;99.90;;;;;;5081629;28;20251;-69
2022/09/22 09:06:39;;;;;;;2.10;1.90;;;-40.00;99.90;;;;;;5080839;28;20174;-71
2022/09/22 09:09:25;;;;;;;5.70;1.60;;;-40.00;99.90;;;;;;5071926;28;20245;-70
2022/09/22 09:11:59;;;;;;;3.33;2.03;;;-40.00;99.90;;;;;;5076974;28;20194;-70
2022/09/22 09:14:53;;;;;;;5.70;3.03;;;-40.00;99.90;;;;;;5079987;28;20187;-79
2022/09/22 09:17:27;;;;;;;5.00;2.80;;;-40.00;99.90;;;;;;5075924;28;20218;-70
2022/09/22 09:19:53;;;;;;;2.57;1.87;;;-40.00;99.90;;;;;;5082341;28;20456;-71
2022/09/22 09:22:39;;;;;;;3.23;1.80;;;-40.00;99.90;;;;;;5087225;28;20185;-72
2022/09/22 09:25:25;;;;;;;3.53;1.93;;;-40.00;99.90;;;;;;5076039;28;20164;-69
2022/09/22 09:27:56;;;;;;;1.77;1.67;;;-40.00;99.90;;;;;;5080516;28;20182;-70
2022/09/22 09:30:22;;;;;;;3.90;2.43;;;-40.00;99.90;;;;;;5075506;28;20274;-76
2022/09/22 09:32:52;;;;;;;1.93;1.83;;;-40.00;99.90;;;;;;5084784;28;20265;-69
2022/09/22 09:35:50;;;;;;;1.83;1.63;;;-40.00;99.90;;;;;;5077729;28;20179;-71
2022/09/22 09:38:24;;;;;;;3.73;2.10;;;-40.00;99.90;;;;;;5076694;28;20179;-71
2022/09/22 09:41:14;;;;;;;2.97;1.87;;;-40.00;99.90;;;;;;5076135;28;20183;-69
2022/09/22 09:43:41;;;;;;;2.30;1.90;;;14.90;99.90;;;;;;5075521;28;20202;-73
2022/09/22 09:46:33;;;;;;;3.27;2.40;;;15.00;99.90;;;;;;5075767;28;20228;-70
2022/09/22 09:49:13;;;;;;;2.20;1.97;;;15.10;99.90;;;;;;5082215;28;20182;-72
2022/09/22 09:51:43;;;;;;;4.17;2.13;;;15.10;99.90;;;;;;5075726;28;20245;-69
2022/09/22 09:54:12;;;;;;;2.03;1.57;;;15.10;99.90;;;;;;5079671;28;20187;-72
2022/09/22 09:57:02;;;;;;;4.23;2.23;;;15.00;99.90;;;;;;5082145;28;20241;-69
2022/09/22 10:02:38;;;;;;;6.33;1.93;;;-40.00;99.90;;;;;;5087152;28;20197;-70
2022/09/22 10:05:21;;;;;;;2.33;1.70;;;-40.00;99.80;;;;;;5083090;28;20189;-69
2022/09/22 10:07:59;;;;;;;2.87;1.50;;;-40.00;99.50;;;;;;5081782;28;20175;-69
2022/09/22 10:10:28;;;;;;;3.90;1.77;;;-40.00;99.90;;;;;;5081110;28;20236;-70
2022/09/22 10:13:23;;;;;;;2.93;2.13;;;-40.00;99.40;;;;;;5075495;28;20179;-69
2022/09/22 10:16:06;;;;;;;1.70;1.60;;;-40.00;97.20;;;;;;5075621;28;20235;-78
2022/09/22 10:18:34;;;;;;;2.77;1.30;;;-40.00;97.60;;;;;;5081060;28;20233;-81
2022/09/22 10:21:06;;;;;;;1.53;1.33;;;-40.00;95.20;;;;;;5080579;28;20178;-80
2022/09/22 10:23:31;;;;;;;1.73;1.63;;;-40.00;94.90;;;;;;5077679;28;20175;-78
2022/09/22 10:26:21;;;;;;;4.77;1.73;;;-40.00;95.00;;;;;;5081691;28;20582;-71
2022/09/22 10:29:06;;;;;;;4.77;1.80;;;-40.00;96.70;;;;;;5074883;28;20188;-68
2022/09/22 10:31:31;;;;;;;3.93;1.40;;;-40.00;94.90;;;;;;5075154;28;20179;-71
2022/09/22 10:33:59;;;;;;;1.83;1.73;;;-40.00;93.80;;;;;;5075992;28;20266;-78
2022/09/22 10:36:27;;;;;;;3.73;1.43;;;-40.00;92.00;;;;;;5077972;28;20205;-78
2022/09/22 10:38:54;;;;;;;2.20;0.83;;;-40.00;88.80;;;;;;5074987;28;20184;-71
2022/09/22 10:41:26;;;;;;;1.60;1.10;;;-40.00;89.50;;;;;;5080248;28;20185;-74
2022/09/22 10:44:19;;;;;;;1.90;1.37;;;-40.00;88.60;;;;;;5082373;28;20738;-76
2022/09/22 10:47:05;;;;;;;6.17;1.80;;;-38.90;89.80;;;;;;5081729;28;20485;-81
2022/09/22 10:49:30;;;;;;;2.00;1.90;;;-40.00;90.60;;;;;;5078564;28;20177;-78
2022/09/22 10:52:19;;;;;;;3.97;1.17;;;-40.00;83.70;;;;;;5075418;28;20198;-80
2022/09/22 10:55:06;;;;;;;3.33;2.00;;;-40.00;80.00;;;;;;5075010;28;20187;-76
2022/09/22 10:57:40;;;;;;;1.27;1.23;;;-40.00;86.90;;;;;;5075402;28;20211;-79
2022/09/22 11:00:14;;;;;;;4.10;2.17;;;-40.00;86.60;;;;;;5074287;28;20198;-73
2022/09/22 11:02:52;;;;;;;2.87;1.33;;;-40.00;83.80;;;;;;5079450;28;20582;-70
2022/09/22 11:14:11;;;;;;;1.93;1.10;;;-39.80;75.90;;;;;;5073929;28;20369;-67
2022/09/22 11:16:49;;;;;;;1.20;1.10;;;-40.00;76.10;;;;;;5085903;28;20516;-68
2022/09/22 11:20:04;;;;;;;2.67;1.80;;;-40.00;72.70;;;;;;5078425;28;20175;-68
2022/09/22 11:23:04;;;;;;;2.80;1.30;;;-40.00;74.20;;;;;;5061802;28;20216;-69
2022/09/22 11:25:54;;;;;;;1.57;1.20;;;-40.00;75.60;;;;;;5074834;28;20179;-69
2022/09/22 11:28:57;;;;;;;1.90;0.90;;;-40.00;69.70;;;;;;5079804;28;20186;-69
2022/09/22 11:31:38;;;;;;;0.90;0.90;;;1.60;92.20;;;;;;5068674;28;20194;-69
2022/09/22 11:34:19;;;;;;;2.37;1.20;;;18.90;97.30;;;;;;5087811;28;20198;-67
2022/09/22 11:36:52;;;;;;;2.60;0.80;;;-40.00;66.70;;;;;;5078485;28;20218;-68
2022/09/22 11:39:24;;;;;;;1.17;1.13;;;20.20;96.20;;;;;;5078630;28;20164;-68
2022/09/22 11:42:04;;;;;;;1.13;1.10;;;20.30;94.60;;;;;;5085752;28;20530;-67
2022/09/22 11:44:35;;;;;;;1.00;0.90;;;-40.00;60.30;;;;;;5083325;28;20175;-68
2022/09/22 11:47:07;;;;;;;5.83;1.63;;;21.10;94.00;;;;;;5086382;28;20183;-69
2022/09/22 11:49:53;;;;;;;3.37;2.67;;;21.20;95.90;;;;;;5085916;28;20210;-69
2022/09/22 11:52:42;;;;;;;2.70;2.50;;;22.50;94.90;;;;;;5085216;28;20206;-68
2022/09/22 11:55:22;;;;;;;1.30;1.03;;;22.90;93.40;;;;;;5079966;28;20185;-70
2022/09/22 11:57:53;;;;;;;1.40;1.30;;;23.40;91.20;;;;;;5078443;28;20190;-67
2022/09/22 12:00:20;;;;;;;1.23;1.13;;;23.60;91.60;;;;;;5078379;28;20183;-69
2022/09/22 12:02:53;;;;;;;1.50;0.97;;;24.10;86.20;;;;;;5081517;28;20179;-72
2022/09/22 12:05:39;;;;;;;1.00;1.00;;;24.40;92.60;;;;;;5084184;28;20182;-68
2022/09/22 12:08:22;;;;;;;2.77;1.37;;;24.60;81.50;;;;;;5095708;28;20288;-69
2022/09/22 12:10:50;;;;;;;0.60;0.60;;;24.40;80.80;;;;;;5078430;28;20206;-72
2022/09/22 12:13:20;;;;;;;2.60;0.67;;;24.60;81.60;;;;;;5080162;28;20559;-70
2022/09/22 12:16:01;;;;;;;1.30;1.00;;;-40.00;47.90;;;;;;5078147;28;20663;-71
2022/09/22 12:18:32;;;;;;;1.77;0.90;;;25.20;81.30;;;;;;5078371;28;20183;-71
2022/09/22 12:21:18;;;;;;;1.03;0.70;;;24.80;77.20;;;;;;5077060;28;20574;-72
2022/09/22 12:23:49;;;;;;;1.13;1.03;;;24.80;74.60;;;;;;5077833;28;20180;-69
2022/09/22 12:26:42;;;;;;;3.23;1.57;;;25.00;80.50;;;;;;5077312;28;20186;-69
2022/09/22 12:29:22;;;;;;;4.53;1.10;;;25.20;75.90;;;;;;5078192;28;20214;-70
2022/09/22 12:31:51;;;;;;;2.27;1.00;;;24.80;73.80;;;;;;5087175;28;20240;-71
2022/09/22 12:34:18;;;;;;;0.80;0.80;;;25.50;74.50;;;;;;5082546;28;20183;-69
2022/09/22 12:36:46;;;;;;;1.00;0.90;;;-40.00;40.50;;;;;;5085038;28;20218;-70
2022/09/22 12:39:24;;;;;;;1.67;0.83;;;-40.00;36.60;;;;;;5081968;28;20290;-69
2022/09/22 12:42:00;;;;;;;1.87;0.80;;;25.40;70.20;;;;;;5077903;28;20575;-70
2022/09/22 12:44:36;;;;;;;1.10;1.10;;;25.40;68.80;;;;;;5079553;28;20483;-71
2022/09/22 12:47:06;;;;;;;1.00;0.90;;;25.70;67.70;;;;;;5077782;28;20541;-70
2022/09/22 12:49:32;;;;;;;2.33;1.00;;;25.80;69.30;;;;;;5086741;28;20590;-71
2022/09/22 12:51:58;;;;;;;1.40;1.07;;;26.20;75.40;;;;;;5076614;28;20290;-69
2022/09/22 12:54:25;;;;;;;1.83;1.17;;;-40.00;36.20;;;;;;5086681;28;20319;-73
2022/09/22 12:57:00;;;;;;;1.10;1.00;;;-40.00;36.10;;;;;;5077024;28;20207;-70
2022/09/22 12:59:35;;;;;;;0.80;0.80;;;-40.00;31.80;;;;;;5077174;28;20193;-70
2022/09/22 13:02:10;;;;;;;2.33;0.97;;;-40.00;32.40;;;;;;5081163;28;20183;-70
2022/09/22 13:04:36;;;;;;;1.20;0.90;;;-40.00;35.20;;;;;;5075690;28;20274;-70
2022/09/22 13:07:04;;;;;;;1.60;1.47;;;-40.00;33.90;;;;;;5089857;28;20238;-69
2022/09/22 13:09:31;;;;;;;2.53;0.97;;;-40.00;33.60;;;;;;5081600;28;20187;-70
2022/09/22 13:12:13;;;;;;;0.70;0.70;;;-40.00;33.40;;;;;;5077196;28;20183;-70
2022/09/22 13:14:57;;;;;;;1.27;1.00;;;-40.00;33.20;;;;;;5077011;28;20185;-71
2022/09/22 13:17:35;;;;;;;3.63;1.20;;;-40.00;31.20;;;;;;5087891;28;20214;-70
2022/09/22 13:20:14;;;;;;;1.05;0.95;;;-40.00;30.50;;;;;;5076907;28;20183;-71
2022/09/22 13:22:41;;;;;;;1.85;1.20;;;-40.00;29.90;;;;;;5081688;28;20171;-71